sensor_id;sensor_type;location;lat;lon;timestamp;pressure;altitude;pressure_sealevel;temperature;humidity
65685;BME280;52405;50.844;-1.062;2023-03-01T00:01:18;103344.16;;;5.31;62.12
65685;BME280;52405;50.844;-1.062;2023-03-01T00:03:45;103285.50;;;5.02;61.24
65685;BME280;52405;50.844;-1.062;2023-03-01T00:06:10;103316.25;;;5.18;60.56
65685;BME280;52405;50.844;-1.062;2023-03-01T00:08:36;103371.13;;;5.44;61.21
65685;BME280;52405;50.844;-1.062;2023-03-01T00:11:09;103364.91;;;5.41;60.90
65685;BME280;52405;50.844;-1.062;2023-03-01T00:13:35;103360.22;;;5.37;60.77
65685;BME280;52405;50.844;-1.062;2023-03-01T00:16:03;103355.53;;;5.33;61.14
65685;BME280;52405;50.844;-1.062;2023-03-01T00:18:29;103373.84;;;5.45;60.82
65685;BME280;52405;50.844;-1.062;2023-03-01T00:20:55;103355.81;;;5.36;60.17
65685;BME280;52405;50.844;-1.062;2023-03-01T00:23:21;103366.75;;;5.43;61.03
65685;BME280;52405;50.844;-1.062;2023-03-01T00:25:47;103324.91;;;5.19;60.89
65685;BME280;52405;50.844;-1.062;2023-03-01T00:28:16;103341.41;;;5.30;60.87
65685;BME280;52405;50.844;-1.062;2023-03-01T00:30:41;103377.34;;;5.46;61.15
65685;BME280;52405;50.844;-1.062;2023-03-01T00:33:09;103344.28;;;5.33;59.88
65685;BME280;52405;50.844;-1.062;2023-03-01T00:35:35;103376.75;;;5.48;60.95
65685;BME280;52405;50.844;-1.062;2023-03-01T00:38:02;103361.75;;;5.44;61.06
65685;BME280;52405;50.844;-1.062;2023-03-01T00:40:32;103374.00;;;5.47;61.03
65685;BME280;52405;50.844;-1.062;2023-03-01T00:42:58;103349.59;;;5.34;60.02
65685;BME280;52405;50.844;-1.062;2023-03-01T00:45:24;103332.94;;;5.22;60.04
65685;BME280;52405;50.844;-1.062;2023-03-01T00:47:50;103361.25;;;5.31;60.50
65685;BME280;52405;50.844;-1.062;2023-03-01T00:50:16;103372.78;;;5.34;60.78
65685;BME280;52405;50.844;-1.062;2023-03-01T00:52:42;103379.16;;;5.38;60.67
65685;BME280;52405;50.844;-1.062;2023-03-01T00:55:07;103377.63;;;5.40;60.40
65685;BME280;52405;50.844;-1.062;2023-03-01T00:57:33;103365.84;;;5.33;61.05
65685;BME280;52405;50.844;-1.062;2023-03-01T01:00:04;103326.25;;;5.07;60.09
65685;BME280;52405;50.844;-1.062;2023-03-01T01:02:32;103378.09;;;5.27;59.98
65685;BME280;52405;50.844;-1.062;2023-03-01T01:04:58;103344.13;;;5.05;60.21
65685;BME280;52405;50.844;-1.062;2023-03-01T01:07:23;103381.25;;;5.16;60.64
65685;BME280;52405;50.844;-1.062;2023-03-01T01:09:51;103372.59;;;5.07;61.56
65685;BME280;52405;50.844;-1.062;2023-03-01T01:12:16;103378.81;;;5.09;60.48
65685;BME280;52405;50.844;-1.062;2023-03-01T01:14:42;103363.97;;;4.97;61.09
65685;BME280;52405;50.844;-1.062;2023-03-01T01:17:10;103361.38;;;4.97;61.83
65685;BME280;52405;50.844;-1.062;2023-03-01T01:19:40;103361.69;;;5.00;61.27
65685;BME280;52405;50.844;-1.062;2023-03-01T01:22:05;103364.84;;;4.98;60.61
65685;BME280;52405;50.844;-1.062;2023-03-01T01:24:30;103319.81;;;4.68;61.76
65685;BME280;52405;50.844;-1.062;2023-03-01T01:26:56;103362.16;;;4.96;60.91
65685;BME280;52405;50.844;-1.062;2023-03-01T01:29:24;103356.53;;;4.92;60.82
65685;BME280;52405;50.844;-1.062;2023-03-01T01:31:49;103341.22;;;4.85;61.89
65685;BME280;52405;50.844;-1.062;2023-03-01T01:34:17;103366.38;;;4.96;61.10
65685;BME280;52405;50.844;-1.062;2023-03-01T01:36:52;103299.34;;;4.61;61.01
65685;BME280;52405;50.844;-1.062;2023-03-01T01:39:20;103288.75;;;4.49;61.77
65685;BME280;52405;50.844;-1.062;2023-03-01T01:41:45;103309.06;;;4.63;60.98
65685;BME280;52405;50.844;-1.062;2023-03-01T01:46:50;103340.41;;;4.68;62.01
65685;BME280;52405;50.844;-1.062;2023-03-01T01:49:46;103366.63;;;4.81;61.30
65685;BME280;52405;50.844;-1.062;2023-03-01T01:52:17;103325.09;;;4.61;61.02
65685;BME280;52405;50.844;-1.062;2023-03-01T01:55:03;103353.31;;;4.77;60.91
65685;BME280;52405;50.844;-1.062;2023-03-01T01:57:44;103347.84;;;4.74;61.32
65685;BME280;52405;50.844;-1.062;2023-03-01T02:00:16;103359.22;;;4.76;61.31
65685;BME280;52405;50.844;-1.062;2023-03-01T02:02:43;103351.47;;;4.76;61.40
65685;BME280;52405;50.844;-1.062;2023-03-01T02:07:56;103335.59;;;4.71;61.26
65685;BME280;52405;50.844;-1.062;2023-03-01T02:10:26;103328.44;;;4.69;60.74
65685;BME280;52405;50.844;-1.062;2023-03-01T02:12:57;103336.66;;;4.73;61.33
65685;BME280;52405;50.844;-1.062;2023-03-01T02:15:23;103325.75;;;4.67;61.74
65685;BME280;52405;50.844;-1.062;2023-03-01T02:17:49;103332.22;;;4.72;61.19
65685;BME280;52405;50.844;-1.062;2023-03-01T02:20:23;103341.06;;;4.74;61.80
65685;BME280;52405;50.844;-1.062;2023-03-01T02:22:51;103313.28;;;4.63;61.43
65685;BME280;52405;50.844;-1.062;2023-03-01T02:25:46;103325.13;;;4.70;60.31
65685;BME280;52405;50.844;-1.062;2023-03-01T02:30:45;103303.31;;;4.66;61.05
65685;BME280;52405;50.844;-1.062;2023-03-01T02:33:31;103307.72;;;4.76;60.20
65685;BME280;52405;50.844;-1.062;2023-03-01T02:36:02;103281.19;;;4.59;60.60
65685;BME280;52405;50.844;-1.062;2023-03-01T02:38:29;103263.34;;;4.52;60.08
65685;BME280;52405;50.844;-1.062;2023-03-01T02:40:59;103237.25;;;4.40;60.93
65685;BME280;52405;50.844;-1.062;2023-03-01T02:43:29;103288.94;;;4.68;60.14
65685;BME280;52405;50.844;-1.062;2023-03-01T02:46:02;103283.94;;;4.70;60.48
65685;BME280;52405;50.844;-1.062;2023-03-01T02:48:39;103263.03;;;4.58;60.99
65685;BME280;52405;50.844;-1.062;2023-03-01T02:56:42;103278.47;;;4.67;59.78
65685;BME280;52405;50.844;-1.062;2023-03-01T02:59:10;103295.94;;;4.78;60.38
65685;BME280;52405;50.844;-1.062;2023-03-01T03:01:35;103275.75;;;4.74;60.31
65685;BME280;52405;50.844;-1.062;2023-03-01T03:04:09;103276.97;;;4.77;59.91
65685;BME280;52405;50.844;-1.062;2023-03-01T03:06:36;103288.19;;;4.87;59.84
65685;BME280;52405;50.844;-1.062;2023-03-01T03:09:02;103260.31;;;4.74;60.77
65685;BME280;52405;50.844;-1.062;2023-03-01T03:11:28;103290.47;;;4.92;60.43
65685;BME280;52405;50.844;-1.062;2023-03-01T03:13:53;103242.13;;;4.72;59.89
65685;BME280;52405;50.844;-1.062;2023-03-01T03:16:22;103275.00;;;4.92;60.44
65685;BME280;52405;50.844;-1.062;2023-03-01T03:18:47;103264.75;;;4.83;60.17
65685;BME280;52405;50.844;-1.062;2023-03-01T03:21:13;103285.94;;;4.98;60.72
65685;BME280;52405;50.844;-1.062;2023-03-01T03:23:39;103263.50;;;4.89;59.74
65685;BME280;52405;50.844;-1.062;2023-03-01T03:26:07;103210.47;;;4.64;59.79
65685;BME280;52405;50.844;-1.062;2023-03-01T03:28:38;103239.13;;;4.76;60.20
65685;BME280;52405;50.844;-1.062;2023-03-01T03:31:06;103278.19;;;5.07;59.28
65685;BME280;52405;50.844;-1.062;2023-03-01T03:33:35;103226.41;;;4.78;59.68
65685;BME280;52405;50.844;-1.062;2023-03-01T03:36:00;103267.91;;;5.07;59.80
65685;BME280;52405;50.844;-1.062;2023-03-01T03:38:26;103274.25;;;5.11;60.49
65685;BME280;52405;50.844;-1.062;2023-03-01T03:41:12;103271.09;;;5.13;60.32
65685;BME280;52405;50.844;-1.062;2023-03-01T03:43:39;103268.69;;;5.15;59.71
65685;BME280;52405;50.844;-1.062;2023-03-01T03:46:08;103262.47;;;5.13;59.50
65685;BME280;52405;50.844;-1.062;2023-03-01T03:48:39;103270.63;;;5.17;59.87
65685;BME280;52405;50.844;-1.062;2023-03-01T03:51:10;103256.53;;;5.14;59.05
65685;BME280;52405;50.844;-1.062;2023-03-01T03:53:36;103235.78;;;5.03;59.51
65685;BME280;52405;50.844;-1.062;2023-03-01T03:56:05;103249.59;;;5.13;59.25
65685;BME280;52405;50.844;-1.062;2023-03-01T03:58:30;103225.94;;;4.99;58.95
65685;BME280;52405;50.844;-1.062;2023-03-01T04:00:56;103256.38;;;5.21;58.85
65685;BME280;52405;50.844;-1.062;2023-03-01T04:03:27;103221.25;;;5.04;59.13
65685;BME280;52405;50.844;-1.062;2023-03-01T04:05:53;103234.25;;;5.14;59.13
65685;BME280;52405;50.844;-1.062;2023-03-01T04:08:20;103194.44;;;4.93;59.12
65685;BME280;52405;50.844;-1.062;2023-03-01T04:10:48;103248.97;;;5.24;59.83
65685;BME280;52405;50.844;-1.062;2023-03-01T04:13:17;103209.75;;;5.09;59.59
65685;BME280;52405;50.844;-1.062;2023-03-01T04:15:51;103245.63;;;5.25;58.96
65685;BME280;52405;50.844;-1.062;2023-03-01T04:18:19;103234.25;;;5.23;58.92
65685;BME280;52405;50.844;-1.062;2023-03-01T04:20:45;103240.63;;;5.27;59.08
65685;BME280;52405;50.844;-1.062;2023-03-01T04:23:12;103233.66;;;5.26;58.52
65685;BME280;52405;50.844;-1.062;2023-03-01T04:28:29;103224.41;;;5.28;58.61
65685;BME280;52405;50.844;-1.062;2023-03-01T04:30:56;103207.28;;;5.19;59.34
65685;BME280;52405;50.844;-1.062;2023-03-01T04:33:22;103219.09;;;5.26;58.50
65685;BME280;52405;50.844;-1.062;2023-03-01T04:35:50;103224.84;;;5.32;59.33
65685;BME280;52405;50.844;-1.062;2023-03-01T04:38:17;103223.31;;;5.34;59.38
65685;BME280;52405;50.844;-1.062;2023-03-01T04:40:42;103166.53;;;5.07;59.08
65685;BME280;52405;50.844;-1.062;2023-03-01T04:43:09;103219.22;;;5.45;59.57
65685;BME280;52405;50.844;-1.062;2023-03-01T04:45:35;103224.81;;;5.50;59.14
65685;BME280;52405;50.844;-1.062;2023-03-01T04:48:01;103206.16;;;5.44;58.20
65685;BME280;52405;50.844;-1.062;2023-03-01T04:50:30;103167.28;;;5.23;59.09
65685;BME280;52405;50.844;-1.062;2023-03-01T04:52:55;103203.91;;;5.47;58.41
65685;BME280;52405;50.844;-1.062;2023-03-01T04:55:27;103213.56;;;5.58;58.27
65685;BME280;52405;50.844;-1.062;2023-03-01T04:57:53;103212.81;;;5.59;58.50
65685;BME280;52405;50.844;-1.062;2023-03-01T05:00:19;103218.88;;;5.59;59.29
65685;BME280;52405;50.844;-1.062;2023-03-01T05:02:53;103205.53;;;5.55;59.10
65685;BME280;52405;50.844;-1.062;2023-03-01T05:07:54;103188.72;;;5.50;59.35
65685;BME280;52405;50.844;-1.062;2023-03-01T05:10:20;103191.59;;;5.53;59.50
65685;BME280;52405;50.844;-1.062;2023-03-01T05:12:46;103160.72;;;5.35;59.39
65685;BME280;52405;50.844;-1.062;2023-03-01T05:15:11;103207.34;;;5.65;58.60
65685;BME280;52405;50.844;-1.062;2023-03-01T05:17:39;103185.06;;;5.56;58.78
65685;BME280;52405;50.844;-1.062;2023-03-01T05:20:05;103199.44;;;5.63;59.38
65685;BME280;52405;50.844;-1.062;2023-03-01T05:22:36;103201.38;;;5.74;59.03
65685;BME280;52405;50.844;-1.062;2023-03-01T05:25:02;103183.09;;;5.63;59.16
65685;BME280;52405;50.844;-1.062;2023-03-01T05:27:32;103201.06;;;5.71;58.87
65685;BME280;52405;50.844;-1.062;2023-03-01T05:30:01;103198.22;;;5.68;59.09
65685;BME280;52405;50.844;-1.062;2023-03-01T05:32:41;103211.84;;;5.76;59.80
65685;BME280;52405;50.844;-1.062;2023-03-01T05:35:08;103211.06;;;5.77;59.38
65685;BME280;52405;50.844;-1.062;2023-03-01T05:37:33;103197.13;;;5.75;59.15
65685;BME280;52405;50.844;-1.062;2023-03-01T05:40:01;103165.63;;;5.60;59.97
65685;BME280;52405;50.844;-1.062;2023-03-01T05:42:26;103179.41;;;5.69;59.38
65685;BME280;52405;50.844;-1.062;2023-03-01T05:44:51;103187.13;;;5.69;60.32
65685;BME280;52405;50.844;-1.062;2023-03-01T05:47:21;103152.78;;;5.51;59.64
65685;BME280;52405;50.844;-1.062;2023-03-01T05:49:47;103208.31;;;5.84;60.03
65685;BME280;52405;50.844;-1.062;2023-03-01T05:52:15;103185.94;;;5.66;59.63
65685;BME280;52405;50.844;-1.062;2023-03-01T05:54:40;103208.19;;;5.83;59.96
65685;BME280;52405;50.844;-1.062;2023-03-01T05:57:06;103208.31;;;5.84;59.62
65685;BME280;52405;50.844;-1.062;2023-03-01T05:59:31;103206.19;;;5.80;59.82
65685;BME280;52405;50.844;-1.062;2023-03-01T06:01:59;103190.31;;;5.75;60.28
65685;BME280;52405;50.844;-1.062;2023-03-01T06:04:27;103193.78;;;5.76;60.68
65685;BME280;52405;50.844;-1.062;2023-03-01T06:06:52;103201.00;;;5.89;60.26
65685;BME280;52405;50.844;-1.062;2023-03-01T06:09:17;103183.28;;;5.83;60.38
65685;BME280;52405;50.844;-1.062;2023-03-01T06:11:43;103205.25;;;5.97;61.47
65685;BME280;52405;50.844;-1.062;2023-03-01T06:14:09;103206.44;;;6.01;60.08
65685;BME280;52405;50.844;-1.062;2023-03-01T06:16:35;103178.84;;;5.91;60.96
65685;BME280;52405;50.844;-1.062;2023-03-01T06:19:03;103203.13;;;6.02;60.76
65685;BME280;52405;50.844;-1.062;2023-03-01T06:21:31;103202.50;;;5.95;60.36
65685;BME280;52405;50.844;-1.062;2023-03-01T06:23:57;103194.47;;;5.92;60.88
65685;BME280;52405;50.844;-1.062;2023-03-01T06:26:22;103164.06;;;5.71;60.83
65685;BME280;52405;50.844;-1.062;2023-03-01T06:28:48;103208.59;;;5.96;61.01
65685;BME280;52405;50.844;-1.062;2023-03-01T06:31:16;103166.16;;;5.75;61.11
65685;BME280;52405;50.844;-1.062;2023-03-01T06:33:41;103133.81;;;5.59;61.25
65685;BME280;52405;50.844;-1.062;2023-03-01T06:36:07;103185.38;;;5.96;61.21
65685;BME280;52405;50.844;-1.062;2023-03-01T06:38:33;103198.38;;;6.06;61.80
65685;BME280;52405;50.844;-1.062;2023-03-01T06:40:58;103184.41;;;6.04;61.72
65685;BME280;52405;50.844;-1.062;2023-03-01T06:43:24;103173.19;;;6.04;61.85
65685;BME280;52405;50.844;-1.062;2023-03-01T06:45:50;103187.09;;;6.14;62.11
65685;BME280;52405;50.844;-1.062;2023-03-01T06:48:17;103172.31;;;6.03;61.59
65685;BME280;52405;50.844;-1.062;2023-03-01T06:50:42;103193.66;;;6.11;61.45
65685;BME280;52405;50.844;-1.062;2023-03-01T06:53:09;103195.03;;;6.07;62.73
65685;BME280;52405;50.844;-1.062;2023-03-01T06:55:35;103193.22;;;6.06;62.55
65685;BME280;52405;50.844;-1.062;2023-03-01T06:58:02;103191.09;;;6.02;62.78
65685;BME280;52405;50.844;-1.062;2023-03-01T07:00:30;103183.84;;;5.98;62.66
65685;BME280;52405;50.844;-1.062;2023-03-01T07:03:00;103172.78;;;5.90;63.20
65685;BME280;52405;50.844;-1.062;2023-03-01T07:05:30;103199.91;;;6.04;62.61
65685;BME280;52405;50.844;-1.062;2023-03-01T07:07:55;103140.38;;;5.75;62.73
65685;BME280;52405;50.844;-1.062;2023-03-01T07:10:21;103188.53;;;5.93;62.71
65685;BME280;52405;50.844;-1.062;2023-03-01T07:12:47;103193.56;;;5.92;63.79
65685;BME280;52405;50.844;-1.062;2023-03-01T07:15:12;103170.59;;;5.76;62.89
65685;BME280;52405;50.844;-1.062;2023-03-01T07:17:40;103204.78;;;5.92;63.55
65685;BME280;52405;50.844;-1.062;2023-03-01T07:20:10;103156.38;;;5.62;63.58
65685;BME280;52405;50.844;-1.062;2023-03-01T07:22:35;103154.56;;;5.61;64.64
65685;BME280;52405;50.844;-1.062;2023-03-01T07:25:01;103195.28;;;5.83;64.77
65685;BME280;52405;50.844;-1.062;2023-03-01T07:27:28;103156.53;;;5.64;64.42
65685;BME280;52405;50.844;-1.062;2023-03-01T07:29:56;103212.38;;;6.00;65.04
65685;BME280;52405;50.844;-1.062;2023-03-01T07:32:21;103170.88;;;5.79;64.03
65685;BME280;52405;50.844;-1.062;2023-03-01T07:34:47;103206.88;;;6.05;64.36
65685;BME280;52405;50.844;-1.062;2023-03-01T07:37:16;103192.94;;;6.03;64.07
65685;BME280;52405;50.844;-1.062;2023-03-01T07:39:41;103193.66;;;6.11;65.30
65685;BME280;52405;50.844;-1.062;2023-03-01T07:42:11;103200.88;;;6.24;64.83
65685;BME280;52405;50.844;-1.062;2023-03-01T07:44:39;103213.66;;;6.41;64.51
65685;BME280;52405;50.844;-1.062;2023-03-01T07:47:04;103214.50;;;6.50;65.09
65685;BME280;52405;50.844;-1.062;2023-03-01T07:49:30;103193.38;;;6.54;63.94
65685;BME280;52405;50.844;-1.062;2023-03-01T07:51:55;103204.53;;;6.64;63.52
65685;BME280;52405;50.844;-1.062;2023-03-01T07:54:23;103196.38;;;6.59;64.02
65685;BME280;52405;50.844;-1.062;2023-03-01T07:56:49;103143.03;;;6.41;64.38
65685;BME280;52405;50.844;-1.062;2023-03-01T07:59:19;103202.31;;;6.77;64.28
65685;BME280;52405;50.844;-1.062;2023-03-01T08:01:44;103187.00;;;6.70;64.59
65685;BME280;52405;50.844;-1.062;2023-03-01T08:04:10;103190.00;;;6.74;63.99
65685;BME280;52405;50.844;-1.062;2023-03-01T08:06:35;103200.25;;;6.83;64.52
65685;BME280;52405;50.844;-1.062;2023-03-01T08:09:03;103145.63;;;6.60;63.86
65685;BME280;52405;50.844;-1.062;2023-03-01T08:11:31;103111.88;;;6.48;63.96
65685;BME280;52405;50.844;-1.062;2023-03-01T08:13:57;103195.63;;;7.08;64.48
65685;BME280;52405;50.844;-1.062;2023-03-01T08:16:23;103195.41;;;7.16;63.50
65685;BME280;52405;50.844;-1.062;2023-03-01T08:18:51;103198.28;;;7.19;63.90
65685;BME280;52405;50.844;-1.062;2023-03-01T08:21:18;103134.16;;;6.85;63.64
65685;BME280;52405;50.844;-1.062;2023-03-01T08:23:43;103199.88;;;7.27;63.54
65685;BME280;52405;50.844;-1.062;2023-03-01T08:26:11;103160.88;;;7.05;63.30
65685;BME280;52405;50.844;-1.062;2023-03-01T08:28:44;103188.84;;;7.19;63.30
65685;BME280;52405;50.844;-1.062;2023-03-01T08:31:20;103198.19;;;7.27;63.85
65685;BME280;52405;50.844;-1.062;2023-03-01T08:33:47;103198.31;;;7.29;63.61
65685;BME280;52405;50.844;-1.062;2023-03-01T08:36:24;103199.44;;;7.51;64.12
65685;BME280;52405;50.844;-1.062;2023-03-01T08:38:49;103202.75;;;7.90;63.98
65685;BME280;52405;50.844;-1.062;2023-03-01T08:41:15;103149.06;;;7.77;62.21
65685;BME280;52405;50.844;-1.062;2023-03-01T08:43:41;103206.53;;;8.14;62.61
65685;BME280;52405;50.844;-1.062;2023-03-01T08:46:06;103200.34;;;8.12;62.10
65685;BME280;52405;50.844;-1.062;2023-03-01T08:48:32;103177.94;;;7.92;62.14
65685;BME280;52405;50.844;-1.062;2023-03-01T08:51:07;103192.19;;;7.87;62.08
65685;BME280;52405;50.844;-1.062;2023-03-01T08:53:34;103195.91;;;7.80;62.48
65685;BME280;52405;50.844;-1.062;2023-03-01T08:56:04;103146.06;;;7.52;62.81
65685;BME280;52405;50.844;-1.062;2023-03-01T08:58:32;103210.16;;;7.85;62.17
65685;BME280;52405;50.844;-1.062;2023-03-01T09:00:58;103201.97;;;7.81;62.42
65685;BME280;52405;50.844;-1.062;2023-03-01T09:03:28;103204.31;;;7.78;62.13
65685;BME280;52405;50.844;-1.062;2023-03-01T09:06:00;103194.06;;;7.69;62.28
65685;BME280;52405;50.844;-1.062;2023-03-01T09:08:27;103170.59;;;7.47;62.27
65685;BME280;52405;50.844;-1.062;2023-03-01T09:10:53;103191.34;;;7.67;62.64
65685;BME280;52405;50.844;-1.062;2023-03-01T09:13:21;103154.34;;;7.58;62.70
65685;BME280;52405;50.844;-1.062;2023-03-01T09:15:50;103135.72;;;7.62;62.38
65685;BME280;52405;50.844;-1.062;2023-03-01T09:18:15;103152.94;;;7.82;62.15
65685;BME280;52405;50.844;-1.062;2023-03-01T09:20:45;103128.13;;;8.25;62.06
65685;BME280;52405;50.844;-1.062;2023-03-01T09:23:13;103163.19;;;9.16;60.99
65685;BME280;52405;50.844;-1.062;2023-03-01T09:25:38;103149.03;;;9.67;57.66
65685;BME280;52405;50.844;-1.062;2023-03-01T09:28:04;103145.97;;;9.94;56.52
65685;BME280;52405;50.844;-1.062;2023-03-01T09:30:29;103151.72;;;10.24;57.01
65685;BME280;52405;50.844;-1.062;2023-03-01T09:32:56;103141.63;;;10.51;55.27
65685;BME280;52405;50.844;-1.062;2023-03-01T09:35:21;103136.69;;;10.77;55.42
65685;BME280;52405;50.844;-1.062;2023-03-01T09:37:49;103123.63;;;11.13;55.20
65685;BME280;52405;50.844;-1.062;2023-03-01T09:40:18;103119.13;;;11.47;52.52
65685;BME280;52405;50.844;-1.062;2023-03-01T09:42:59;103135.22;;;11.42;52.30
65685;BME280;52405;50.844;-1.062;2023-03-01T09:45:34;103124.66;;;11.03;52.35
65685;BME280;52405;50.844;-1.062;2023-03-01T09:48:01;103127.88;;;10.75;54.30
65685;BME280;52405;50.844;-1.062;2023-03-01T09:50:35;103095.94;;;10.19;54.55
65685;BME280;52405;50.844;-1.062;2023-03-01T09:53:05;103099.38;;;9.96;55.85
65685;BME280;52405;50.844;-1.062;2023-03-01T10:00:49;103109.88;;;9.63;56.70
65685;BME280;52405;50.844;-1.062;2023-03-01T10:06:05;103110.63;;;9.51;57.38
65685;BME280;52405;50.844;-1.062;2023-03-01T10:11:29;103113.63;;;9.45;57.37
65685;BME280;52405;50.844;-1.062;2023-03-01T10:20:12;103105.97;;;9.24;57.19
65685;BME280;52405;50.844;-1.062;2023-03-01T10:22:42;103088.94;;;9.06;57.58
65685;BME280;52405;50.844;-1.062;2023-03-01T10:25:13;103100.25;;;8.96;56.82
65685;BME280;52405;50.844;-1.062;2023-03-01T10:27:55;103106.59;;;9.00;57.12
65685;BME280;52405;50.844;-1.062;2023-03-01T10:30:41;103062.44;;;8.66;57.34
65685;BME280;52405;50.844;-1.062;2023-03-01T10:33:25;103103.13;;;8.89;56.85
65685;BME280;52405;50.844;-1.062;2023-03-01T10:35:52;103094.22;;;8.85;56.81
65685;BME280;52405;50.844;-1.062;2023-03-01T10:38:18;103021.81;;;8.44;57.24
65685;BME280;52405;50.844;-1.062;2023-03-01T10:43:15;103091.13;;;8.79;57.18
65685;BME280;52405;50.844;-1.062;2023-03-01T10:45:41;103105.59;;;8.87;56.94
65685;BME280;52405;50.844;-1.062;2023-03-01T10:48:32;103094.59;;;8.90;57.00
65685;BME280;52405;50.844;-1.062;2023-03-01T10:53:32;103086.88;;;9.02;55.80
65685;BME280;52405;50.844;-1.062;2023-03-01T10:56:03;103085.31;;;9.04;56.48
65685;BME280;52405;50.844;-1.062;2023-03-01T10:58:30;103065.91;;;8.99;56.22
65685;BME280;52405;50.844;-1.062;2023-03-01T11:00:58;103044.47;;;8.90;55.87
65685;BME280;52405;50.844;-1.062;2023-03-01T11:03:25;103074.34;;;9.18;56.29
65685;BME280;52405;50.844;-1.062;2023-03-01T11:06:04;103026.19;;;8.88;55.55
65685;BME280;52405;50.844;-1.062;2023-03-01T11:08:47;103058.25;;;9.00;55.71
65685;BME280;52405;50.844;-1.062;2023-03-01T11:11:23;103069.88;;;9.05;55.30
65685;BME280;52405;50.844;-1.062;2023-03-01T11:13:56;103043.66;;;8.91;55.07
65685;BME280;52405;50.844;-1.062;2023-03-01T11:21:36;103062.94;;;8.94;54.72
65685;BME280;52405;50.844;-1.062;2023-03-01T11:24:08;103047.06;;;8.90;54.43
65685;BME280;52405;50.844;-1.062;2023-03-01T11:26:41;103057.88;;;8.96;54.06
65685;BME280;52405;50.844;-1.062;2023-03-01T11:29:16;103010.81;;;8.79;54.12
65685;BME280;52405;50.844;-1.062;2023-03-01T11:31:42;103043.25;;;8.96;53.38
65685;BME280;52405;50.844;-1.062;2023-03-01T11:34:14;103052.72;;;8.96;53.52
65685;BME280;52405;50.844;-1.062;2023-03-01T11:36:46;103043.91;;;8.94;53.63
65685;BME280;52405;50.844;-1.062;2023-03-01T11:41:44;103008.50;;;8.72;53.79
65685;BME280;52405;50.844;-1.062;2023-03-01T11:44:24;102989.81;;;8.76;53.62
65685;BME280;52405;50.844;-1.062;2023-03-01T11:47:19;102971.03;;;8.79;53.07
65685;BME280;52405;50.844;-1.062;2023-03-01T12:09:22;102977.25;;;9.03;52.60
65685;BME280;52405;50.844;-1.062;2023-03-01T12:14:41;103000.88;;;9.18;52.75
65685;BME280;52405;50.844;-1.062;2023-03-01T12:28:39;102981.41;;;9.01;53.35
65685;BME280;52405;50.844;-1.062;2023-03-01T12:36:52;102969.69;;;9.06;53.42
65685;BME280;52405;50.844;-1.062;2023-03-01T12:39:51;102961.00;;;9.05;52.98
65685;BME280;52405;50.844;-1.062;2023-03-01T12:42:26;102963.38;;;9.02;53.75
65685;BME280;52405;50.844;-1.062;2023-03-01T12:48:24;102945.13;;;9.01;53.51
65685;BME280;52405;50.844;-1.062;2023-03-01T12:50:57;102940.94;;;9.03;53.81
65685;BME280;52405;50.844;-1.062;2023-03-01T12:53:35;102932.28;;;9.02;54.14
65685;BME280;52405;50.844;-1.062;2023-03-01T12:56:27;102922.94;;;9.04;54.04
65685;BME280;52405;50.844;-1.062;2023-03-01T12:59:17;102935.34;;;9.09;53.58
65685;BME280;52405;50.844;-1.062;2023-03-01T13:04:45;102918.41;;;9.02;53.28
65685;BME280;52405;50.844;-1.062;2023-03-01T13:10:11;102919.06;;;8.99;53.47
65685;BME280;52405;50.844;-1.062;2023-03-01T13:15:34;102907.56;;;8.96;54.31
65685;BME280;52405;50.844;-1.062;2023-03-01T13:20:56;102903.28;;;8.96;53.95
65685;BME280;52405;50.844;-1.062;2023-03-01T13:33:46;102896.09;;;9.04;54.00
65685;BME280;52405;50.844;-1.062;2023-03-01T13:39:04;102889.69;;;9.11;53.85
65685;BME280;52405;50.844;-1.062;2023-03-01T13:52:06;102877.88;;;9.26;53.60
65685;BME280;52405;50.844;-1.062;2023-03-01T13:54:49;102844.94;;;9.13;53.33
65685;BME280;52405;50.844;-1.062;2023-03-01T13:57:23;102879.81;;;9.29;53.43
65685;BME280;52405;50.844;-1.062;2023-03-01T13:59:50;102871.81;;;9.25;52.92
65685;BME280;52405;50.844;-1.062;2023-03-01T14:02:15;102872.59;;;9.24;52.93
65685;BME280;52405;50.844;-1.062;2023-03-01T14:04:41;102850.03;;;9.23;53.59
65685;BME280;52405;50.844;-1.062;2023-03-01T14:07:21;102863.34;;;9.28;53.76
65685;BME280;52405;50.844;-1.062;2023-03-01T14:09:52;102860.88;;;9.30;53.81
65685;BME280;52405;50.844;-1.062;2023-03-01T14:17:28;102849.59;;;9.41;53.42
65685;BME280;52405;50.844;-1.062;2023-03-01T14:20:09;102798.28;;;9.13;53.20
65685;BME280;52405;50.844;-1.062;2023-03-01T14:22:39;102826.63;;;9.45;53.55
65685;BME280;52405;50.844;-1.062;2023-03-01T14:28:38;102823.00;;;9.55;53.16
65685;BME280;52405;50.844;-1.062;2023-03-01T14:31:37;102809.47;;;9.48;53.21
65685;BME280;52405;50.844;-1.062;2023-03-01T14:34:05;102800.56;;;9.44;52.87
65685;BME280;52405;50.844;-1.062;2023-03-01T14:36:34;102790.41;;;9.35;53.60
65685;BME280;52405;50.844;-1.062;2023-03-01T14:38:59;102766.50;;;9.27;53.58
65685;BME280;52405;50.844;-1.062;2023-03-01T14:41:32;102794.13;;;9.39;53.03
65685;BME280;52405;50.844;-1.062;2023-03-01T14:44:07;102770.69;;;9.25;53.30
65685;BME280;52405;50.844;-1.062;2023-03-01T14:46:40;102791.53;;;9.39;53.49
65685;BME280;52405;50.844;-1.062;2023-03-01T14:51:41;102763.69;;;9.48;53.23
65685;BME280;52405;50.844;-1.062;2023-03-01T14:56:47;102756.69;;;9.47;53.25
65685;BME280;52405;50.844;-1.062;2023-03-01T14:59:13;102757.81;;;9.51;53.38
65685;BME280;52405;50.844;-1.062;2023-03-01T15:01:40;102774.25;;;9.63;53.15
65685;BME280;52405;50.844;-1.062;2023-03-01T15:04:11;102752.50;;;9.61;53.19
65685;BME280;52405;50.844;-1.062;2023-03-01T15:06:37;102762.88;;;9.73;52.82
65685;BME280;52405;50.844;-1.062;2023-03-01T15:09:06;102757.09;;;9.77;53.19
65685;BME280;52405;50.844;-1.062;2023-03-01T15:11:36;102743.59;;;9.69;52.88
65685;BME280;52405;50.844;-1.062;2023-03-01T15:17:21;102743.13;;;9.75;52.21
65685;BME280;52405;50.844;-1.062;2023-03-01T15:19:51;102748.19;;;9.73;52.67
65685;BME280;52405;50.844;-1.062;2023-03-01T15:22:20;102752.38;;;9.71;52.65
65685;BME280;52405;50.844;-1.062;2023-03-01T15:24:49;102744.91;;;9.76;53.16